createdAt,value
2022-12-04T00:00:00.405Z,0
2022-12-04T00:01:00.555Z,0
2022-12-04T00:02:00.714Z,0
2022-12-04T00:03:00.958Z,0
2022-12-04T00:04:01.402Z,0
2022-12-04T00:05:01.668Z,0
2022-12-04T00:06:02.096Z,0
2022-12-04T00:07:02.251Z,0
2022-12-04T00:08:02.499Z,0
2022-12-04T00:09:02.938Z,0
2022-12-04T00:10:03.102Z,0
2022-12-04T00:11:03.253Z,0
2022-12-04T00:12:03.405Z,0
2022-12-04T00:13:03.564Z,0
2022-12-04T00:14:07.085Z,0
2022-12-04T00:15:37.858Z,0
2022-12-04T00:16:38.097Z,0
2022-12-04T00:17:38.517Z,0
2022-12-04T00:18:38.692Z,0
2022-12-04T00:19:38.862Z,0
2022-12-04T00:20:39.032Z,0
2022-12-04T00:21:39.186Z,0
2022-12-04T00:22:39.338Z,0
2022-12-04T00:23:39.489Z,0
2022-12-04T00:24:39.661Z,0
2022-12-04T00:25:41.454Z,0
2022-12-04T00:26:41.848Z,0
2022-12-04T00:27:42.001Z,0
2022-12-04T00:28:42.152Z,0
2022-12-04T00:29:42.320Z,0
2022-12-04T00:30:42.470Z,0
2022-12-04T00:31:42.688Z,0
2022-12-04T00:32:43.031Z,0
2022-12-04T00:33:43.193Z,0
2022-12-04T00:34:43.347Z,0
2022-12-04T00:35:43.500Z,0
2022-12-04T00:36:43.651Z,0
2022-12-04T00:37:43.819Z,0
2022-12-04T00:38:43.975Z,0
2022-12-04T00:39:44.131Z,0
2022-12-04T00:40:44.283Z,0
2022-12-04T00:41:44.442Z,0
2022-12-04T00:42:44.599Z,0
2022-12-04T00:43:44.753Z,0
2022-12-04T00:44:44.904Z,0
2022-12-04T00:45:45.096Z,0
2022-12-04T00:46:45.444Z,0
2022-12-04T00:47:45.598Z,0
2022-12-04T00:48:45.758Z,0
2022-12-04T00:49:45.911Z,0
2022-12-04T00:50:46.062Z,0
2022-12-04T00:51:46.222Z,0
2022-12-04T00:52:46.393Z,0
2022-12-04T00:53:46.553Z,0
2022-12-04T00:54:46.717Z,0
2022-12-04T00:55:46.883Z,0
2022-12-04T00:56:47.037Z,0
2022-12-04T00:57:47.191Z,0
2022-12-04T00:58:47.344Z,0
2022-12-04T00:59:47.492Z,0
2022-12-04T01:00:47.672Z,0
2022-12-04T01:01:48.091Z,0
2022-12-04T01:02:48.426Z,0
2022-12-04T01:03:48.779Z,0
2022-12-04T01:04:48.929Z,0
2022-12-04T01:05:49.100Z,0
2022-12-04T01:06:49.256Z,0
2022-12-04T01:07:49.445Z,0
2022-12-04T01:08:49.858Z,0
2022-12-04T01:09:50.009Z,0
2022-12-04T01:10:50.159Z,0
2022-12-04T01:11:50.311Z,0
2022-12-04T01:12:50.457Z,0
2022-12-04T01:13:50.634Z,0
2022-12-04T01:14:50.781Z,0
2022-12-04T01:15:50.928Z,0
2022-12-04T01:16:51.132Z,0
2022-12-04T01:17:51.606Z,0
2022-12-04T01:18:51.766Z,0
2022-12-04T01:19:52.005Z,0
2022-12-04T01:20:52.634Z,0
2022-12-04T01:21:52.972Z,0
2022-12-04T01:22:53.129Z,0
2022-12-04T01:23:53.282Z,0
2022-12-04T01:24:53.453Z,0
2022-12-04T01:25:53.615Z,0
2022-12-04T01:26:53.765Z,0
2022-12-04T01:27:53.918Z,0
2022-12-04T01:28:54.074Z,0
2022-12-04T01:29:54.387Z,0
2022-12-04T01:30:55.414Z,0
2022-12-04T01:31:55.721Z,0
2022-12-04T01:32:56.112Z,0
2022-12-04T01:33:56.264Z,0
2022-12-04T01:34:56.426Z,0
2022-12-04T01:35:56.593Z,0
2022-12-04T01:36:56.753Z,0
2022-12-04T01:37:56.916Z,0
2022-12-04T01:38:57.073Z,0
2022-12-04T01:39:57.446Z,0
2022-12-04T01:40:58.011Z,0
2022-12-04T01:41:58.167Z,0
2022-12-04T01:42:58.323Z,0
2022-12-04T01:43:58.471Z,0
2022-12-04T01:44:58.624Z,0
2022-12-04T01:45:58.844Z,0
2022-12-04T01:46:59.191Z,0
2022-12-04T01:47:59.348Z,0
2022-12-04T01:48:59.498Z,0
2022-12-04T01:49:59.661Z,0
2022-12-04T01:50:59.828Z,0
2022-12-04T01:51:59.976Z,0
2022-12-04T01:53:00.141Z,0
2022-12-04T01:54:00.292Z,0
2022-12-04T01:55:00.449Z,0
2022-12-04T01:56:00.603Z,0
2022-12-04T01:57:00.760Z,0
2022-12-04T01:58:00.923Z,0
2022-12-04T01:59:01.075Z,0
2022-12-04T02:00:01.224Z,0
2022-12-04T02:01:05.253Z,0
2022-12-04T02:02:09.987Z,0
2022-12-04T02:03:10.583Z,0
2022-12-04T02:04:10.999Z,0
2022-12-04T02:05:11.165Z,0
2022-12-04T02:06:11.318Z,0
2022-12-04T02:07:11.477Z,0
2022-12-04T02:08:11.692Z,0
2022-12-04T02:09:12.041Z,0
2022-12-04T02:10:12.194Z,0
2022-12-04T02:11:12.349Z,0
2022-12-04T02:12:12.501Z,0
2022-12-04T02:13:12.657Z,0
2022-12-04T02:14:12.816Z,0
2022-12-04T02:15:12.968Z,0
2022-12-04T02:16:13.165Z,0
2022-12-04T02:17:13.486Z,0
2022-12-04T02:18:13.641Z,0
2022-12-04T02:19:13.807Z,0
2022-12-04T02:20:13.959Z,0
2022-12-04T02:21:14.127Z,0
2022-12-04T02:22:14.288Z,0
2022-12-04T02:23:14.443Z,0
2022-12-04T02:24:14.600Z,0
2022-12-04T02:25:14.767Z,0
2022-12-04T02:26:14.925Z,0
2022-12-04T02:27:15.081Z,0
2022-12-04T02:28:15.232Z,0
2022-12-04T02:29:15.379Z,0
2022-12-04T02:30:15.521Z,0
2022-12-04T02:31:15.779Z,0
2022-12-04T02:32:16.097Z,0
2022-12-04T02:33:16.258Z,0
2022-12-04T02:34:16.409Z,0
2022-12-04T02:35:16.563Z,0
2022-12-04T02:36:16.719Z,0
2022-12-04T02:37:16.876Z,0
2022-12-04T02:38:17.034Z,0
2022-12-04T02:39:17.187Z,0
2022-12-04T02:40:17.351Z,0
2022-12-04T02:41:17.507Z,0
2022-12-04T02:42:17.683Z,0
2022-12-04T02:43:17.847Z,0
2022-12-04T02:44:18.002Z,0
2022-12-04T02:45:18.154Z,0
2022-12-04T02:46:18.378Z,0
2022-12-04T02:47:18.893Z,0
2022-12-04T02:48:19.055Z,0
2022-12-04T02:49:19.204Z,0
2022-12-04T02:50:19.399Z,0
2022-12-04T02:51:19.580Z,0
2022-12-04T02:52:19.736Z,0
2022-12-04T02:53:19.889Z,0
2022-12-04T02:54:20.043Z,0
2022-12-04T02:55:20.208Z,0
2022-12-04T02:56:20.360Z,0
2022-12-04T02:57:20.509Z,0
2022-12-04T02:58:20.661Z,0
2022-12-04T02:59:20.811Z,0
2022-12-04T03:00:20.969Z,0
2022-12-04T03:01:21.216Z,0
2022-12-04T03:02:21.567Z,0
2022-12-04T03:03:21.941Z,0
2022-12-04T03:04:22.108Z,0
2022-12-04T03:05:22.266Z,0
2022-12-04T03:06:22.419Z,0
2022-12-04T03:07:22.572Z,0
2022-12-04T03:08:22.723Z,0
2022-12-04T03:09:22.883Z,0
2022-12-04T03:10:23.032Z,0
2022-12-04T03:11:23.183Z,0
2022-12-04T03:12:23.336Z,0
2022-12-04T03:13:23.496Z,0
2022-12-04T03:14:23.735Z,0
2022-12-04T03:15:23.899Z,0
2022-12-04T03:16:24.084Z,0
2022-12-04T03:17:24.375Z,0
2022-12-04T03:18:24.525Z,0
2022-12-04T03:19:24.678Z,0
2022-12-04T03:20:24.841Z,0
2022-12-04T03:21:24.992Z,0
2022-12-04T03:22:25.143Z,0
2022-12-04T03:23:25.302Z,0
2022-12-04T03:24:25.454Z,0
2022-12-04T03:25:25.624Z,0
2022-12-04T03:26:25.777Z,0
2022-12-04T03:27:25.943Z,0
2022-12-04T03:28:26.132Z,0
2022-12-04T03:29:26.286Z,0
2022-12-04T03:30:26.482Z,0
2022-12-04T03:31:26.861Z,0
2022-12-04T03:32:27.236Z,0
2022-12-04T03:33:27.399Z,0
2022-12-04T03:34:27.546Z,0
2022-12-04T03:35:27.696Z,0
2022-12-04T03:36:27.855Z,0
2022-12-04T03:37:28.023Z,0
2022-12-04T03:38:28.175Z,0
2022-12-04T03:39:28.322Z,0
2022-12-04T03:40:28.474Z,0
2022-12-04T03:41:28.624Z,0
2022-12-04T03:42:28.781Z,0
2022-12-04T03:43:28.934Z,0
2022-12-04T03:44:29.101Z,0
2022-12-04T03:45:29.328Z,0
2022-12-04T03:46:29.586Z,0
2022-12-04T03:47:29.955Z,0
2022-12-04T03:48:30.119Z,0
2022-12-04T03:49:30.274Z,0
2022-12-04T03:50:30.423Z,0
2022-12-04T03:51:30.591Z,0
2022-12-04T03:52:30.747Z,0
2022-12-04T03:53:30.902Z,0
2022-12-04T03:54:31.057Z,0
2022-12-04T03:55:31.212Z,0
2022-12-04T03:56:31.371Z,0
2022-12-04T03:57:31.547Z,0
2022-12-04T03:58:31.706Z,0
2022-12-04T03:59:31.894Z,0
2022-12-04T04:00:32.047Z,0
2022-12-04T04:01:32.285Z,0
2022-12-04T04:02:32.692Z,0
2022-12-04T04:03:32.991Z,0
2022-12-04T04:04:33.142Z,0
2022-12-04T04:05:33.302Z,0
2022-12-04T04:06:33.467Z,0
2022-12-04T04:07:35.684Z,0
2022-12-04T04:08:36.319Z,0
2022-12-04T04:09:36.482Z,0
2022-12-04T04:10:36.634Z,0
2022-12-04T04:11:36.787Z,0
2022-12-04T04:12:36.941Z,0
2022-12-04T04:13:37.097Z,0
2022-12-04T04:14:37.253Z,0
2022-12-04T04:15:37.540Z,0
2022-12-04T04:16:37.937Z,0
2022-12-04T04:17:38.845Z,0
2022-12-04T04:18:39.338Z,0
2022-12-04T04:19:39.497Z,0
2022-12-04T04:20:39.648Z,0
2022-12-04T04:21:39.803Z,0
2022-12-04T04:22:39.968Z,0
2022-12-04T04:23:40.127Z,0
2022-12-04T04:24:40.277Z,0
2022-12-04T04:25:40.435Z,0
2022-12-04T04:26:40.600Z,0
2022-12-04T04:27:40.753Z,0
2022-12-04T04:28:40.908Z,0
2022-12-04T04:29:41.061Z,0
2022-12-04T04:30:41.289Z,0
2022-12-04T04:31:41.645Z,0
2022-12-04T04:32:42.038Z,0
2022-12-04T04:33:42.190Z,0
2022-12-04T04:34:42.339Z,0
2022-12-04T04:35:42.488Z,0
2022-12-04T04:36:42.645Z,0
2022-12-04T04:37:42.805Z,0
2022-12-04T04:38:42.957Z,0
2022-12-04T04:39:43.109Z,0
2022-12-04T04:40:43.265Z,0
2022-12-04T04:41:43.416Z,0
2022-12-04T04:42:43.566Z,0
2022-12-04T04:43:43.722Z,0
2022-12-04T04:44:43.875Z,0
2022-12-04T04:45:44.025Z,0
2022-12-04T04:46:44.253Z,0
2022-12-04T04:47:44.599Z,0
2022-12-04T04:48:44.752Z,0
2022-12-04T04:49:44.897Z,0
2022-12-04T04:50:45.048Z,0
2022-12-04T04:51:45.210Z,0
2022-12-04T04:52:45.369Z,0
2022-12-04T04:53:45.526Z,0
2022-12-04T04:54:45.682Z,0
2022-12-04T04:55:45.837Z,0
2022-12-04T04:56:45.987Z,0
2022-12-04T04:57:46.148Z,0
2022-12-04T04:58:46.299Z,0
2022-12-04T04:59:46.459Z,0
2022-12-04T05:00:46.615Z,0
2022-12-04T05:01:46.912Z,0
2022-12-04T05:02:47.456Z,0
2022-12-04T05:03:47.758Z,0
2022-12-04T05:04:47.907Z,0
2022-12-04T05:05:48.061Z,0
2022-12-04T05:06:48.211Z,0
2022-12-04T05:07:48.422Z,0
2022-12-04T05:08:48.754Z,0
2022-12-04T05:09:48.902Z,0
2022-12-04T05:10:49.060Z,0
2022-12-04T05:11:49.207Z,0
2022-12-04T05:12:49.367Z,0
2022-12-04T05:13:49.518Z,0
2022-12-04T05:14:49.675Z,0
2022-12-04T05:15:49.899Z,0
2022-12-04T05:16:50.284Z,0
2022-12-04T05:17:50.429Z,0
2022-12-04T05:18:50.591Z,0
2022-12-04T05:19:50.761Z,0
2022-12-04T05:20:50.910Z,0
2022-12-04T05:21:51.058Z,0
2022-12-04T05:22:51.218Z,0
2022-12-04T05:23:51.385Z,0
2022-12-04T05:24:51.536Z,0
2022-12-04T05:25:51.688Z,0
2022-12-04T05:26:51.850Z,0
2022-12-04T05:27:52.009Z,0
2022-12-04T05:28:52.161Z,0
2022-12-04T05:29:52.395Z,0
2022-12-04T05:30:53.378Z,0
2022-12-04T05:31:53.717Z,0
2022-12-04T05:32:53.869Z,0
2022-12-04T05:33:54.025Z,0
2022-12-04T05:34:54.192Z,0
2022-12-04T05:35:54.341Z,0
2022-12-04T05:36:54.512Z,0
2022-12-04T05:37:54.663Z,0
2022-12-04T05:38:54.814Z,0
2022-12-04T05:39:55.189Z,0
2022-12-04T05:40:56.455Z,0
2022-12-04T05:41:56.615Z,0
2022-12-04T05:42:56.776Z,0
2022-12-04T05:43:56.929Z,0
2022-12-04T05:44:57.077Z,0
2022-12-04T05:45:57.245Z,0
2022-12-04T05:46:57.448Z,0
2022-12-04T05:47:57.729Z,0
2022-12-04T05:48:57.883Z,0
2022-12-04T05:49:58.307Z,0
2022-12-04T05:50:58.956Z,0
2022-12-04T05:51:59.113Z,0
2022-12-04T05:52:59.281Z,0
2022-12-04T05:53:59.443Z,0
2022-12-04T05:54:59.598Z,0
2022-12-04T05:55:59.755Z,0
2022-12-04T05:56:59.916Z,0
2022-12-04T05:58:00.073Z,0
2022-12-04T05:59:00.235Z,0
2022-12-04T06:00:00.403Z,0
2022-12-04T06:01:00.577Z,0
2022-12-04T06:02:00.833Z,0
2022-12-04T06:03:01.207Z,0
2022-12-04T06:04:01.440Z,0
2022-12-04T06:05:01.591Z,0
2022-12-04T06:06:01.752Z,0
2022-12-04T06:07:01.901Z,0
2022-12-04T06:08:02.118Z,0
2022-12-04T06:09:02.632Z,0
2022-12-04T06:10:02.781Z,0
2022-12-04T06:11:02.933Z,0
2022-12-04T06:12:03.098Z,0
2022-12-04T06:13:03.252Z,0
2022-12-04T06:14:03.430Z,0
2022-12-04T06:15:03.586Z,0
2022-12-04T06:16:03.797Z,0
2022-12-04T06:17:04.052Z,0
2022-12-04T06:18:04.203Z,0
2022-12-04T06:19:04.355Z,0
2022-12-04T06:20:08.122Z,0
2022-12-04T06:21:12.348Z,0
2022-12-04T06:22:12.500Z,0
2022-12-04T06:23:12.654Z,0
2022-12-04T06:24:12.810Z,0
2022-12-04T06:25:12.962Z,0
2022-12-04T06:26:13.115Z,0
2022-12-04T06:27:29.033Z,0
2022-12-04T06:28:29.538Z,0
2022-12-04T06:29:29.699Z,0
2022-12-04T06:30:29.856Z,0
2022-12-04T06:31:30.114Z,0
2022-12-04T06:32:30.773Z,0
2022-12-04T06:33:30.928Z,0
2022-12-04T06:34:31.083Z,0
2022-12-04T06:35:31.237Z,0
2022-12-04T06:36:31.393Z,0
2022-12-04T06:37:31.548Z,0
2022-12-04T06:38:31.701Z,0
2022-12-04T06:39:31.913Z,0
2022-12-04T06:40:32.088Z,0
2022-12-04T06:41:32.246Z,0
2022-12-04T06:42:32.396Z,0
2022-12-04T06:43:32.547Z,0
2022-12-04T06:44:32.701Z,1
2022-12-04T06:45:32.896Z,2
2022-12-04T06:46:33.158Z,3
2022-12-04T06:47:33.305Z,3
2022-12-04T06:48:33.459Z,4
2022-12-04T06:49:33.620Z,5
2022-12-04T06:50:33.782Z,5
2022-12-04T06:51:33.932Z,5
2022-12-04T06:52:34.080Z,6
2022-12-04T06:53:34.241Z,6
2022-12-04T06:54:34.396Z,7
2022-12-04T06:55:34.549Z,8
2022-12-04T06:56:34.704Z,8
2022-12-04T06:57:34.858Z,9
2022-12-04T06:58:35.006Z,10
2022-12-04T06:59:35.174Z,11
2022-12-04T07:00:35.470Z,11
2022-12-04T07:01:35.936Z,13
2022-12-04T07:02:36.455Z,13
2022-12-04T07:03:36.813Z,15
2022-12-04T07:04:36.971Z,15
2022-12-04T07:05:37.122Z,17
2022-12-04T07:06:37.294Z,17
2022-12-04T07:07:37.489Z,19
2022-12-04T07:08:37.854Z,19
2022-12-04T07:09:38.011Z,21
2022-12-04T07:10:38.175Z,24
2022-12-04T07:11:38.344Z,24
2022-12-04T07:12:38.505Z,27
2022-12-04T07:13:38.659Z,30
2022-12-04T07:14:38.812Z,30
2022-12-04T07:15:38.964Z,33
2022-12-04T07:16:41.271Z,37
2022-12-04T07:17:43.093Z,41
2022-12-04T07:18:43.247Z,46
2022-12-04T07:19:43.400Z,51
2022-12-04T07:20:43.553Z,51
2022-12-04T07:21:43.725Z,57
2022-12-04T07:22:43.921Z,63
2022-12-04T07:23:44.079Z,63
2022-12-04T07:24:44.240Z,63
2022-12-04T07:25:44.387Z,70
2022-12-04T07:26:44.542Z,70
2022-12-04T07:27:44.703Z,70
2022-12-04T07:28:44.859Z,77
2022-12-04T07:29:45.012Z,77
2022-12-04T07:30:45.181Z,86
2022-12-04T07:31:45.427Z,96
2022-12-04T07:32:45.933Z,96
2022-12-04T07:33:46.102Z,96
2022-12-04T07:34:46.265Z,110
2022-12-04T07:35:46.420Z,110
2022-12-04T07:36:46.598Z,110
2022-12-04T07:37:46.766Z,110
2022-12-04T07:38:46.932Z,110
2022-12-04T07:39:47.085Z,110
2022-12-04T07:40:47.236Z,110
2022-12-04T07:41:47.396Z,110
2022-12-04T07:42:47.700Z,110
2022-12-04T07:43:47.855Z,110
2022-12-04T07:44:48.018Z,120
2022-12-04T07:45:48.264Z,120
2022-12-04T07:46:48.553Z,120
2022-12-04T07:47:48.699Z,120
2022-12-04T07:48:48.853Z,140
2022-12-04T07:49:49.018Z,140
2022-12-04T07:50:49.180Z,160
2022-12-04T07:51:49.333Z,160
2022-12-04T07:52:49.478Z,160
2022-12-04T07:53:49.633Z,180
2022-12-04T07:54:49.781Z,180
2022-12-04T07:55:49.927Z,200
2022-12-04T07:56:50.076Z,200
2022-12-04T07:57:50.236Z,220
2022-12-04T07:58:50.385Z,220
2022-12-04T07:59:50.538Z,220
2022-12-04T08:00:50.770Z,249.92
2022-12-04T08:01:51.170Z,249.92
2022-12-04T08:02:51.513Z,249.92
2022-12-04T08:03:51.662Z,249.92
2022-12-04T08:04:51.875Z,280
2022-12-04T08:05:52.250Z,280
2022-12-04T08:06:52.399Z,280
2022-12-04T08:07:52.650Z,280
2022-12-04T08:08:52.945Z,280
2022-12-04T08:09:53.243Z,280
2022-12-04T08:10:54.427Z,280
2022-12-04T08:11:54.583Z,280
2022-12-04T08:12:54.731Z,280
2022-12-04T08:13:54.878Z,280
2022-12-04T08:14:55.032Z,280
2022-12-04T08:15:55.194Z,280
2022-12-04T08:16:55.397Z,280
2022-12-04T08:17:55.771Z,280
2022-12-04T08:18:55.924Z,280
2022-12-04T08:19:56.376Z,280
2022-12-04T08:20:57.584Z,280
2022-12-04T08:21:57.739Z,280
2022-12-04T08:22:57.898Z,280
2022-12-04T08:23:58.054Z,289.92
2022-12-04T08:24:58.202Z,289.92
2022-12-04T08:25:58.351Z,320
2022-12-04T08:26:58.498Z,320
2022-12-04T08:27:58.669Z,320
2022-12-04T08:28:58.826Z,320
2022-12-04T08:29:58.973Z,360
2022-12-04T08:30:59.152Z,360
2022-12-04T08:31:59.535Z,360
2022-12-04T08:32:59.709Z,360
2022-12-04T08:33:59.877Z,360
2022-12-04T08:35:00.033Z,360
2022-12-04T08:36:00.195Z,360
2022-12-04T08:37:00.356Z,360
2022-12-04T08:38:00.507Z,360
2022-12-04T08:39:00.657Z,400
2022-12-04T08:40:00.808Z,400
2022-12-04T08:41:00.965Z,400
2022-12-04T08:42:01.132Z,400
2022-12-04T08:43:01.286Z,400
2022-12-04T08:44:01.436Z,400
2022-12-04T08:45:01.595Z,400
2022-12-04T08:46:01.787Z,440
2022-12-04T08:47:02.199Z,440
2022-12-04T08:48:02.353Z,440
2022-12-04T08:49:02.511Z,489.92
2022-12-04T08:50:02.688Z,489.92
2022-12-04T08:51:02.847Z,489.92
2022-12-04T08:52:03.004Z,489.92
2022-12-04T08:53:03.159Z,489.92
2022-12-04T08:54:03.310Z,489.92
2022-12-04T08:55:03.471Z,489.92
2022-12-04T08:56:03.628Z,489.92
2022-12-04T08:57:03.833Z,489.92
2022-12-04T08:58:04.012Z,489.92
2022-12-04T08:59:04.174Z,529.92
2022-12-04T09:00:04.334Z,529.92
2022-12-04T09:01:04.590Z,529.92
2022-12-04T09:02:05.074Z,529.92
2022-12-04T09:03:05.391Z,529.92
2022-12-04T09:04:05.583Z,529.92
2022-12-04T09:05:05.932Z,529.92
2022-12-04T09:06:06.092Z,589.76
2022-12-04T09:07:06.252Z,589.76
2022-12-04T09:08:06.488Z,589.76
2022-12-04T09:09:06.931Z,589.76
2022-12-04T09:10:07.089Z,589.76
2022-12-04T09:11:07.242Z,589.76
2022-12-04T09:12:07.401Z,589.76
2022-12-04T09:13:07.555Z,589.76
2022-12-04T09:14:07.711Z,589.76
2022-12-04T09:15:07.858Z,589.76
2022-12-04T09:16:08.122Z,529.92
2022-12-04T09:17:08.706Z,529.92
2022-12-04T09:18:08.858Z,529.92
2022-12-04T09:19:09.022Z,589.76
2022-12-04T09:20:09.191Z,589.76
2022-12-04T09:21:09.364Z,589.76
2022-12-04T09:22:09.541Z,589.76
2022-12-04T09:23:09.701Z,589.76
2022-12-04T09:24:09.857Z,589.76
2022-12-04T09:25:10.020Z,589.76
2022-12-04T09:26:10.171Z,589.76
2022-12-04T09:27:14.627Z,589.76
2022-12-04T09:28:15.385Z,600
2022-12-04T09:29:15.548Z,579.84
2022-12-04T09:30:15.696Z,579.84
2022-12-04T09:31:15.890Z,579.84
2022-12-04T09:32:16.260Z,579.84
2022-12-04T09:33:16.416Z,579.84
2022-12-04T09:34:16.568Z,520
2022-12-04T09:35:16.729Z,520
2022-12-04T09:36:16.886Z,520
2022-12-04T09:37:17.048Z,520
2022-12-04T09:38:17.196Z,579.84
2022-12-04T09:39:17.352Z,579.84
2022-12-04T09:40:17.503Z,640
2022-12-04T09:41:17.651Z,640
2022-12-04T09:42:17.801Z,709.76
2022-12-04T09:43:17.962Z,709.76
2022-12-04T09:44:18.119Z,709.76
2022-12-04T09:45:18.267Z,709.76
2022-12-04T09:46:18.455Z,789.76
2022-12-04T09:47:18.995Z,789.76
2022-12-04T09:48:19.149Z,789.76
2022-12-04T09:49:19.315Z,789.76
2022-12-04T09:50:19.474Z,789.76
2022-12-04T09:51:19.631Z,789.76
2022-12-04T09:52:21.946Z,789.76
2022-12-04T09:53:22.380Z,789.76
2022-12-04T09:54:22.538Z,789.76
2022-12-04T09:55:22.696Z,789.76
2022-12-04T09:56:22.851Z,809.6
2022-12-04T09:57:22.998Z,809.6
2022-12-04T09:58:23.154Z,809.6
2022-12-04T09:59:23.311Z,809.6
2022-12-04T10:00:23.519Z,899.84
2022-12-04T10:01:23.835Z,999.68
2022-12-04T10:02:24.142Z,1099.52
2022-12-04T10:03:24.950Z,1099.52
2022-12-04T10:04:25.536Z,1099.52
2022-12-04T10:05:25.710Z,1099.52
2022-12-04T10:06:25.863Z,1099.52
2022-12-04T10:07:26.025Z,1099.52
2022-12-04T10:08:26.181Z,1219.84
2022-12-04T10:09:26.348Z,1219.84
2022-12-04T10:10:26.505Z,1219.84
2022-12-04T10:11:32.183Z,1219.84
2022-12-04T10:12:33.258Z,1259.52
2022-12-04T10:13:33.412Z,1259.52
2022-12-04T10:14:33.563Z,1259.52
2022-12-04T10:15:33.721Z,1259.52
2022-12-04T10:16:34.011Z,1259.52
2022-12-04T10:17:34.436Z,1259.52
2022-12-04T10:18:34.590Z,1319.68
2022-12-04T10:19:34.753Z,1319.68
2022-12-04T10:20:34.910Z,1319.68
2022-12-04T10:21:35.059Z,1319.68
2022-12-04T10:22:35.222Z,1319.68
2022-12-04T10:23:35.380Z,1179.52
2022-12-04T10:24:35.537Z,1179.52
2022-12-04T10:25:35.696Z,1059.84
2022-12-04T10:26:35.844Z,949.76
2022-12-04T10:27:36.007Z,949.76
2022-12-04T10:28:36.184Z,949.76
2022-12-04T10:29:36.335Z,949.76
2022-12-04T10:30:36.493Z,949.76
2022-12-04T10:31:36.696Z,949.76
2022-12-04T10:32:37.146Z,949.76
2022-12-04T10:33:37.302Z,949.76
2022-12-04T10:34:41.176Z,949.76
2022-12-04T10:35:46.277Z,979.84
2022-12-04T10:36:46.426Z,979.84
2022-12-04T10:37:46.578Z,979.84
2022-12-04T10:38:46.735Z,979.84
2022-12-04T10:39:46.899Z,979.84
2022-12-04T10:40:47.054Z,979.84
2022-12-04T10:41:47.215Z,1079.68
2022-12-04T10:42:47.357Z,1079.68
2022-12-04T10:43:47.502Z,1200
2022-12-04T10:44:47.662Z,1200
2022-12-04T10:45:47.814Z,1200
2022-12-04T10:46:48.012Z,1200
2022-12-04T10:47:48.406Z,1319.68
2022-12-04T10:48:48.562Z,1319.68
2022-12-04T10:49:48.718Z,1319.68
2022-12-04T10:50:48.899Z,1459.2
2022-12-04T10:51:49.057Z,1459.2
2022-12-04T10:52:49.227Z,1459.2
2022-12-04T10:53:49.463Z,1459.2
2022-12-04T10:54:49.720Z,1459.2
2022-12-04T10:55:49.874Z,1459.2
2022-12-04T10:56:50.038Z,1459.2
2022-12-04T10:57:50.195Z,1459.2
2022-12-04T10:58:50.348Z,1459.2
2022-12-04T10:59:50.502Z,1459.2
2022-12-04T11:00:50.658Z,1600
2022-12-04T11:01:50.880Z,1600
2022-12-04T11:02:51.241Z,1760
2022-12-04T11:03:51.614Z,1760
2022-12-04T11:04:51.768Z,1760
2022-12-04T11:05:51.919Z,1760
2022-12-04T11:06:52.070Z,1760
2022-12-04T11:07:52.266Z,1760
2022-12-04T11:08:52.628Z,1760
2022-12-04T11:09:52.797Z,1760
2022-12-04T11:10:53.179Z,1760
2022-12-04T11:11:53.336Z,1760
2022-12-04T11:12:53.488Z,1579.52
2022-12-04T11:13:53.641Z,1419.52
2022-12-04T11:14:53.796Z,1419.52
2022-12-04T11:15:53.971Z,1259.52
2022-12-04T11:16:54.360Z,1259.52
2022-12-04T11:17:54.512Z,1259.52
2022-12-04T11:18:54.667Z,1259.52
2022-12-04T11:19:55.061Z,1259.52
2022-12-04T11:20:55.952Z,1259.52
2022-12-04T11:21:56.126Z,1259.52
2022-12-04T11:22:56.289Z,1259.52
2022-12-04T11:23:56.456Z,1259.52
2022-12-04T11:24:56.607Z,1259.52
2022-12-04T11:26:00.657Z,1159.68
2022-12-04T11:27:06.758Z,1179.52
2022-12-04T11:28:06.910Z,1179.52
2022-12-04T11:29:07.077Z,1179.52
2022-12-04T11:30:07.229Z,1179.52
2022-12-04T11:31:07.412Z,1179.52
2022-12-04T11:32:08.345Z,1179.52
2022-12-04T11:33:08.822Z,1179.52
2022-12-04T11:34:08.985Z,1179.52
2022-12-04T11:35:09.141Z,1179.52
2022-12-04T11:36:09.295Z,1200
2022-12-04T11:37:09.459Z,1200
2022-12-04T11:38:09.608Z,1200
2022-12-04T11:39:09.774Z,1200
2022-12-04T11:40:09.924Z,1200
2022-12-04T11:41:10.078Z,1200
2022-12-04T11:42:10.225Z,1200
2022-12-04T11:43:10.383Z,1200
2022-12-04T11:44:10.550Z,1200
2022-12-04T11:45:10.712Z,1200
2022-12-04T11:46:10.907Z,1200
2022-12-04T11:47:11.300Z,1200
2022-12-04T11:48:11.657Z,1200
2022-12-04T11:49:11.807Z,1200
2022-12-04T11:50:11.959Z,1200
2022-12-04T11:51:12.114Z,1319.68
2022-12-04T11:52:12.271Z,1319.68
2022-12-04T11:53:12.421Z,1319.68
2022-12-04T11:54:12.569Z,1319.68
2022-12-04T11:55:12.718Z,1319.68
2022-12-04T11:56:12.881Z,1319.68
2022-12-04T11:57:13.037Z,1459.2
2022-12-04T11:58:13.196Z,1459.2
2022-12-04T11:59:13.347Z,1459.2
2022-12-04T12:00:13.521Z,1459.2
2022-12-04T12:01:13.693Z,1459.2
2022-12-04T12:02:13.928Z,1459.2
2022-12-04T12:03:14.713Z,1459.2
2022-12-04T12:04:15.328Z,1619.2
2022-12-04T12:05:15.491Z,1619.2
2022-12-04T12:06:15.644Z,1619.2
2022-12-04T12:07:15.793Z,1619.2
2022-12-04T12:08:15.958Z,1619.2
2022-12-04T12:09:16.115Z,1619.2
2022-12-04T12:10:16.274Z,1619.2
2022-12-04T12:11:16.430Z,1619.2
2022-12-04T12:12:16.584Z,1619.2
2022-12-04T12:13:16.739Z,1619.2
2022-12-04T12:14:16.893Z,1579.52
2022-12-04T12:15:17.041Z,1579.52
2022-12-04T12:16:17.239Z,1579.52
2022-12-04T12:17:17.586Z,1579.52
2022-12-04T12:18:19.172Z,1579.52
2022-12-04T12:19:22.658Z,1739.52
2022-12-04T12:20:22.823Z,1739.52
2022-12-04T12:21:22.975Z,1739.52
2022-12-04T12:22:23.144Z,1739.52
2022-12-04T12:23:23.300Z,1739.52
2022-12-04T12:24:23.466Z,1739.52
2022-12-04T12:25:23.627Z,1739.52
2022-12-04T12:26:23.794Z,1739.52
2022-12-04T12:27:23.960Z,1739.52
2022-12-04T12:28:24.125Z,1739.52
2022-12-04T12:29:24.318Z,1839.36
2022-12-04T12:30:24.474Z,1839.36
2022-12-04T12:31:24.656Z,1839.36
2022-12-04T12:32:25.007Z,1839.36
2022-12-04T12:33:25.167Z,1839.36
2022-12-04T12:34:25.326Z,1839.36
2022-12-04T12:35:25.568Z,1839.36
2022-12-04T12:36:25.728Z,1839.36
2022-12-04T12:37:25.890Z,1839.36
2022-12-04T12:38:26.161Z,1839.36
2022-12-04T12:39:26.331Z,1899.52
2022-12-04T12:40:26.487Z,1899.52
2022-12-04T12:41:26.651Z,1899.52
2022-12-04T12:42:26.840Z,1899.52
2022-12-04T12:43:27.185Z,1899.52
2022-12-04T12:44:27.670Z,1899.52
2022-12-04T12:45:27.887Z,1899.52
2022-12-04T12:46:28.466Z,1899.52
2022-12-04T12:47:28.927Z,1899.52
2022-12-04T12:48:29.074Z,1899.52
2022-12-04T12:49:29.225Z,1760
2022-12-04T12:50:29.378Z,1760
2022-12-04T12:51:30.573Z,1760
2022-12-04T12:52:31.302Z,1760
2022-12-04T12:53:31.455Z,1760
2022-12-04T12:54:31.609Z,1760
2022-12-04T12:55:31.767Z,1760
2022-12-04T12:56:31.980Z,1760
2022-12-04T12:57:32.167Z,1760
2022-12-04T12:58:32.330Z,1760
2022-12-04T12:59:32.481Z,1719.04
2022-12-04T13:00:32.635Z,1719.04
2022-12-04T13:01:32.848Z,1719.04
2022-12-04T13:02:33.233Z,1719.04
2022-12-04T13:03:33.628Z,1719.04
2022-12-04T13:04:33.781Z,1899.52
2022-12-04T13:05:33.941Z,1899.52
2022-12-04T13:06:34.093Z,1899.52
2022-12-04T13:07:34.323Z,1899.52
2022-12-04T13:08:34.709Z,1899.52
2022-12-04T13:09:34.861Z,1899.52
2022-12-04T13:10:35.014Z,1899.52
2022-12-04T13:11:35.165Z,1899.52
2022-12-04T13:12:35.387Z,1899.52
2022-12-04T13:13:35.541Z,1899.52
2022-12-04T13:14:35.698Z,1799.68
2022-12-04T13:15:35.852Z,1799.68
2022-12-04T13:16:36.064Z,1799.68
2022-12-04T13:17:36.498Z,1619.2
2022-12-04T13:18:36.657Z,1619.2
2022-12-04T13:19:36.812Z,1619.2
2022-12-04T13:20:36.966Z,1619.2
2022-12-04T13:21:37.160Z,1619.2
2022-12-04T13:22:37.453Z,1619.2
2022-12-04T13:23:37.614Z,1619.2
2022-12-04T13:24:37.767Z,1619.2
2022-12-04T13:25:37.915Z,1619.2
2022-12-04T13:26:38.067Z,1619.2
2022-12-04T13:27:38.225Z,1699.84
2022-12-04T13:28:38.377Z,1699.84
2022-12-04T13:29:38.528Z,1699.84
2022-12-04T13:30:38.705Z,1699.84
2022-12-04T13:31:38.919Z,1699.84
2022-12-04T13:32:39.370Z,1699.84
2022-12-04T13:33:39.524Z,1699.84
2022-12-04T13:34:39.676Z,1699.84
2022-12-04T13:35:39.838Z,1699.84
2022-12-04T13:36:39.991Z,1699.84
2022-12-04T13:37:40.144Z,1760
2022-12-04T13:38:40.295Z,1760
2022-12-04T13:39:40.458Z,1760
2022-12-04T13:40:40.617Z,1760
2022-12-04T13:41:40.798Z,1579.52
2022-12-04T13:42:40.953Z,1419.52
2022-12-04T13:43:41.148Z,1419.52
2022-12-04T13:44:41.306Z,1259.52
2022-12-04T13:45:41.499Z,1259.52
2022-12-04T13:46:41.782Z,1259.52
2022-12-04T13:47:41.942Z,1120
2022-12-04T13:48:42.104Z,1120